Getzville 2E NY

43° 01' 25"N, 78° 44' 55"W, Elevation 589 ft.
Eastern Time

Hourly observations for the last 72 hours

Date Time Temperature (°F) Humi-
dity

(%)
Wind
(mph)
Pressure Rain (in) Sun
(W/m2)
ET
(in)
Air Dew 6 Hour 1 Hr 3 Hr 6 Hr Day
Alt
(in)
Sea
Level

(mb)
Max Min
8 21:00 79.9 71.7 76 WSW 0 G 1 29.85 1010.8 0.00 0 0.243
8 20:00 82.9 72.5 94.2 82.9 71 SSW 0 G 3 29.85 1010.8 0.00 46 0.240
8 19:00 84.3 71.3 65 WNW 1 G 5 29.84 1010.7 0.00 315 0.234
8 18:00 87.5 72.9 62 W 3 G 11 29.85 1011.0 0.00 294 0.225
8 17:00 89.5 73.3 59 W 2 G 9 29.85 1010.8 0.00 336 0.214
8 16:00 93.8 73.5 52 WNW 4 G 10 29.87 1011.5 0.00 914 0.186
8 15:00 93.6 73.9 53 WNW 3 G 11 29.86 1011.2 0.00 1020 0.155
8 14:00 92.8 73.7 92.9 77.7 54 W 6 G 16 29.89 1012.3 0.00 1095 0.123
8 13:00 91.4 74.6 58 WNW 2 G 10 29.91 1012.9 0.00 1099 0.092
8 12:00 89.6 74.9 62 W 2 G 10 29.91 1012.7 0.00 1048 0.064
8 11:00 85.8 73.6 67 W 2 G 6 29.90 1012.6 0.00 937 0.041
8 10:00 82.8 72.9 72 W 3 G 6 29.91 1012.8 0.00 752 0.023
8 09:00 79.8 71.2 75 SW 2 G 8 29.92 1013.3 0.00 547 0.012
8 08:00 77.7 70.7 77.7 73.8 79 WNW 1 G 5 29.92 1013.3 0.00 309 0.007
8 07:00 74.8 70.0 85 SW 1 G 3 29.92 1013.1 0.00 69 0.005
8 06:00 73.9 69.5 86 SW 0 G 6 29.92 1013.1 0.00 11 0.005
8 05:00 74.1 69.6 86 W 2 G 4 29.91 1012.8 0.00 0 0.004
8 04:00 74.6 69.8 85 WSW 1 G 4 29.90 1012.4 0.00 0 0.003
8 03:00 75.3 70.1 84 WNW 1 G 4 29.90 1012.4 0.00 0 0.002
8 02:00 75.9 71.4 86.0 75.9 86 SSE 1 G 3 29.90 1012.4 0.00 0 0.001
8 01:00 77.1 71.5 83 SSW 1 G 5 29.91 1012.8 0.00 0 0.000
8 00:00 77.4 71.5 82 W 1 G 2 29.90 1012.7 0.00 0 0.253
7 23:00 77.1 70.5 80 WNW 1 G 2 29.90 1012.4 0.00 0 0.252
7 22:00 79.1 71.7 78 SW 0 G 2 29.89 1012.2 0.00 0 0.252
7 21:00 81.9 70.3 68 SSW 0 G 2 29.86 1011.3 0.00 0 0.251
7 20:00 86.0 71.0 95.4 86.0 61 S 1 G 4 29.85 1011.0 0.00 49 0.247
7 19:00 89.1 70.9 55 WSW 2 G 8 29.87 1011.4 0.00 271 0.238
7 18:00 89.9 69.9 52 WSW 2 G 4 29.87 1011.5 0.00 200 0.227
7 17:00 91.3 67.7 46 S 2 G 7 29.87 1011.4 0.00 485 0.216
7 16:00 95.1 67.7 41 S 2 G 4 29.89 1012.2 0.00 889 0.189
7 15:00 95.1 71.7 47 WSW 2 G 7 29.91 1012.9 0.00 1000 0.159
7 14:00 93.7 69.8 94.0 74.8 46 WSW 2 G 7 29.93 1013.5 0.00 1090 0.128
7 13:00 93.5 72.1 50 S 2 G 7 29.93 1013.7 0.00 1100 0.097
7 12:00 90.7 70.1 51 W 2 G 7 29.94 1014.0 0.00 1076 0.068
7 11:00 87.6 71.5 59 SW 0 G 6 29.94 1014.0 0.00 960 0.043
7 10:00 83.7 70.2 64 W 0 G 4 29.95 1014.3 0.00 791 0.024
7 09:00 80.5 69.0 68 W 2 G 4 29.95 1014.2 0.00 598 0.011
7 08:00 74.8 68.2 74.8 65.0 80 SE 0 G 2 29.95 1014.3 0.00 380 0.004
7 07:00 66.5 64.1 92 E 0 G 1 29.95 1014.3 0.00 146 0.002
7 06:00 65.2 62.8 92 Calm 29.95 1014.3 0.00 7 0.002
7 05:00 65.9 63.2 91 Calm 29.95 1014.3 0.00 0 0.002
7 04:00 66.7 63.4 89 Calm 29.95 1014.2 0.00 0 0.002
7 03:00 67.4 63.7 88 Calm 29.95 1014.2 0.00 0 0.002
7 02:00 68.3 63.6 84.3 68.3 85 Calm 29.95 1014.4 0.00 0 0.001
7 01:00 69.7 64.3 83 Calm 29.95 1014.4 0.00 0 0.000
7 00:00 71.5 64.3 78 Calm 29.96 1014.7 0.00 0 0.246
6 23:00 73.9 64.7 73 Calm 29.97 1014.9 0.00 0 0.245
6 22:00 77.0 66.1 69 Calm 29.97 1014.8 0.00 0 0.244
6 21:00 80.5 65.8 61 Calm 29.95 1014.4 0.00 0 0.243
6 20:00 84.3 66.9 94.2 84.3 56 E 3 G 7 29.95 1014.3 0.00 51 0.238
6 19:00 87.0 66.1 50 E 5 G 10 29.95 1014.2 0.00 274 0.227
6 18:00 88.1 68.8 53 E 6 G 10 29.94 1014.0 0.00 114 0.214
6 17:00 88.9 70.1 54 E 4 G 10 29.94 1014.0 0.00 322 0.202
6 16:00 92.8 71.5 50 E 4 G 11 29.96 1014.5 0.00 854 0.174
6 15:00 91.7 67.4 45 E 2 G 6 29.97 1014.9 0.00 1238 0.144
6 14:00 92.5 67.5 93.4 69.8 44 E 1 G 8 29.98 1015.2 0.00 1111 0.111
6 13:00 92.2 67.2 44 E 4 G 8 29.98 1015.4 0.00 1113 0.080
6 12:00 90.2 67.9 48 NW 2 G 4 29.99 1015.6 0.00 1055 0.052
6 11:00 86.6 70.1 58 ENE 3 G 6 30.00 1015.8 0.00 963 0.031
6 10:00 82.5 68.2 62 E 1 G 2 29.99 1015.5 0.00 334 0.017
6 09:00 76.2 66.5 72 ESE 1 G 2 29.99 1015.6 0.00 251 0.009
6 08:00 69.8 64.4 69.8 62.1 83 ESE 0 G 1 29.99 1015.5 0.00 366 0.003
6 07:00 62.6 60.2 92 Calm 29.98 1015.3 0.00 39 0.002
6 06:00 62.2 59.8 92 Calm 29.97 1014.8 0.00 11 0.002
6 05:00 62.5 59.8 91 Calm 29.95 1014.4 0.00 0 0.002
6 04:00 63.2 60.2 90 Calm 29.95 1014.2 0.00 0 0.002
6 03:00 64.1 60.5 88 Calm 29.96 1014.5 0.00 0 0.002
6 02:00 65.2 60.9 85.2 65.1 86 Calm 29.96 1014.7 0.00 0 0.001
6 01:00 66.7 61.4 83 Calm 29.96 1014.7 0.00 0 0.000
6 00:00 68.7 62.6 81 Calm 29.95 1014.4 0.00 0 0.231
5 23:00 70.4 62.1 75 Calm 29.95 1014.1 0.00 0 0.230
5 22:00 73.7 62.1 67 Calm 29.95 1014.2 0.00 0 0.230

Data generated by WxSolution Version 1.9.1.5, Build 2018.05.20.